createdAt,value
2022-11-18T00:01:55.369Z,7.20
2022-11-18T00:04:23.278Z,7.20
2022-11-18T00:06:52.732Z,7.20
2022-11-18T00:09:20.858Z,7.30
2022-11-18T00:12:06.058Z,7.30
2022-11-18T00:14:33.911Z,7.30
2022-11-18T00:17:02.524Z,7.30
2022-11-18T00:19:31.083Z,7.20
2022-11-18T00:22:01.266Z,7.30
2022-11-18T00:24:29.253Z,7.20
2022-11-18T00:26:57.160Z,7.10
2022-11-18T00:29:26.252Z,7.10
2022-11-18T00:31:54.168Z,7.20
2022-11-18T00:34:22.065Z,7.20
2022-11-18T00:36:49.950Z,7.20
2022-11-18T00:39:20.462Z,7.10
2022-11-18T00:42:06.534Z,7.20
2022-11-18T00:44:34.472Z,7.20
2022-11-18T00:47:02.443Z,7.20
2022-11-18T00:49:30.324Z,7.20
2022-11-18T00:51:58.230Z,7.20
2022-11-18T00:54:27.422Z,7.90
2022-11-18T00:56:55.385Z,7.70
2022-11-18T00:59:23.256Z,7.60
2022-11-18T01:01:51.243Z,7.50
2022-11-18T01:04:19.219Z,7.60
2022-11-18T01:06:47.264Z,7.40
2022-11-18T01:09:15.508Z,7.40
2022-11-18T01:12:02.533Z,7.30
2022-11-18T01:14:30.398Z,7.20
2022-11-18T01:16:58.474Z,7.20
2022-11-18T01:19:26.412Z,7.20
2022-11-18T01:21:54.388Z,7.30
2022-11-18T01:24:22.225Z,7.40
2022-11-18T01:26:51.446Z,7.20
2022-11-18T01:29:19.594Z,7.00
2022-11-18T01:32:16.870Z,7.00
2022-11-18T01:34:35.716Z,7.00
2022-11-18T01:37:03.614Z,7.10
2022-11-18T01:39:31.468Z,7.10
2022-11-18T01:42:00.947Z,7.10
2022-11-18T01:45:09.656Z,7.10
2022-11-18T01:47:40.824Z,7.20
2022-11-18T01:50:09.211Z,7.10
2022-11-18T01:52:37.218Z,7.10
2022-11-18T01:55:08.341Z,7.00
2022-11-18T01:57:37.589Z,7.00
2022-11-18T02:00:06.789Z,7.00
2022-11-18T02:02:35.425Z,7.10
2022-11-18T02:05:03.640Z,7.00
2022-11-18T02:07:32.058Z,7.10
2022-11-18T02:09:59.916Z,7.10
2022-11-18T02:12:27.766Z,7.00
2022-11-18T02:14:57.041Z,7.10
2022-11-18T02:17:30.360Z,7.20
2022-11-18T02:20:28.337Z,7.10
2022-11-18T02:23:22.293Z,7.00
2022-11-18T02:25:59.963Z,7.10
2022-11-18T02:28:35.877Z,7.10
2022-11-18T02:31:08.185Z,7.10
2022-11-18T02:33:37.851Z,7.20
2022-11-18T02:36:08.999Z,7.10
2022-11-18T02:38:38.621Z,7.10
2022-11-18T02:41:07.507Z,7.10
2022-11-18T02:43:36.897Z,7.20
2022-11-18T02:46:08.681Z,7.10
2022-11-18T02:48:37.645Z,7.20
2022-11-18T02:51:05.806Z,7.10
2022-11-18T02:53:33.723Z,7.20
2022-11-18T02:56:01.630Z,7.20
2022-11-18T02:58:29.485Z,7.20
2022-11-18T03:00:57.968Z,7.30
2022-11-18T03:03:28.819Z,7.30
2022-11-18T03:06:03.633Z,7.30
2022-11-18T03:08:33.931Z,7.20
2022-11-18T03:11:07.150Z,7.20
2022-11-18T03:13:36.680Z,7.20
2022-11-18T03:16:05.875Z,7.10
2022-11-18T03:18:38.134Z,7.10
2022-11-18T03:21:07.771Z,7.10
2022-11-18T03:23:37.434Z,7.10
2022-11-18T03:26:06.526Z,7.20
2022-11-18T03:28:37.088Z,7.30
2022-11-18T03:31:07.349Z,7.30
2022-11-18T03:33:37.491Z,7.20
2022-11-18T03:36:06.923Z,7.30
2022-11-18T03:38:36.803Z,7.30
2022-11-18T03:41:05.862Z,7.20
2022-11-18T03:43:35.738Z,7.30
2022-11-18T03:46:06.021Z,7.30
2022-11-18T03:48:37.107Z,7.30
2022-11-18T03:51:07.883Z,7.30
2022-11-18T03:53:36.962Z,7.40
2022-11-18T03:56:15.792Z,7.30
2022-11-18T03:58:51.715Z,7.20
2022-11-18T04:01:20.830Z,7.20
2022-11-18T04:03:50.086Z,7.30
2022-11-18T04:06:22.266Z,7.30
2022-11-18T04:08:51.130Z,7.20
2022-11-18T04:11:35.086Z,7.30
2022-11-18T04:14:02.927Z,7.20
2022-11-18T04:16:30.771Z,7.30
2022-11-18T04:19:05.780Z,7.30
2022-11-18T04:21:34.101Z,7.30
2022-11-18T04:24:02.477Z,7.30
2022-11-18T04:26:31.484Z,7.30
2022-11-18T04:28:59.372Z,7.20
2022-11-18T04:31:27.251Z,7.30
2022-11-18T04:33:55.079Z,7.40
2022-11-18T04:36:24.246Z,7.20
2022-11-18T04:38:52.087Z,7.30
2022-11-18T04:41:19.914Z,7.10
2022-11-18T04:43:47.797Z,7.10
2022-11-18T04:46:15.638Z,7.10
2022-11-18T04:48:43.471Z,7.00
2022-11-18T04:51:11.313Z,7.00
2022-11-18T04:53:40.552Z,7.00
2022-11-18T04:56:09.058Z,7.00
2022-11-18T04:58:36.874Z,7.10
2022-11-18T05:01:04.786Z,6.90
2022-11-18T05:03:32.644Z,7.10
2022-11-18T05:06:02.689Z,7.10
2022-11-18T05:08:30.559Z,7.00
2022-11-18T05:11:20.671Z,7.00
2022-11-18T05:13:47.558Z,7.10
2022-11-18T05:16:15.420Z,7.10
2022-11-18T05:18:43.243Z,7.00
2022-11-18T05:21:11.086Z,6.90
2022-11-18T05:23:38.989Z,7.00
2022-11-18T05:26:08.557Z,7.00
2022-11-18T05:28:36.775Z,7.00
2022-11-18T05:31:08.063Z,7.00
2022-11-18T05:33:35.930Z,7.10
2022-11-18T05:36:07.019Z,7.00
2022-11-18T05:39:08.505Z,6.90
2022-11-18T05:41:55.431Z,6.90
2022-11-18T05:44:23.274Z,6.90
2022-11-18T05:46:51.130Z,6.90
2022-11-18T05:49:19.415Z,6.70
2022-11-18T05:51:47.402Z,6.70
2022-11-18T05:54:15.676Z,6.70
2022-11-18T05:56:45.822Z,6.70
2022-11-18T05:59:13.825Z,6.70
2022-11-18T06:01:44.217Z,6.80
2022-11-18T06:04:14.530Z,6.70
2022-11-18T06:06:42.480Z,6.70
2022-11-18T06:09:10.297Z,6.70
2022-11-18T06:11:39.389Z,6.70
2022-11-18T06:14:09.317Z,6.70
2022-11-18T06:16:40.856Z,6.80
2022-11-18T06:19:09.323Z,6.70
2022-11-18T06:21:37.180Z,6.80
2022-11-18T06:24:07.104Z,6.80
2022-11-18T06:26:34.988Z,6.80
2022-11-18T06:29:02.813Z,6.80
2022-11-18T06:31:32.038Z,6.80
2022-11-18T06:33:59.907Z,6.80
2022-11-18T06:36:27.823Z,6.80
2022-11-18T06:38:55.709Z,6.70
2022-11-18T06:41:23.543Z,6.70
2022-11-18T06:43:51.385Z,6.70
2022-11-18T06:46:36.590Z,6.70
2022-11-18T06:49:05.806Z,6.80
2022-11-18T06:51:33.690Z,6.80
2022-11-18T06:54:05.980Z,6.70
2022-11-18T06:56:37.602Z,6.70
2022-11-18T06:59:05.442Z,6.80
2022-11-18T07:01:35.386Z,6.80
2022-11-18T07:04:03.454Z,6.80
2022-11-18T07:06:34.283Z,6.80
2022-11-18T07:09:02.520Z,6.80
2022-11-18T07:11:30.365Z,6.90
2022-11-18T07:13:58.224Z,6.90
2022-11-18T07:16:26.729Z,6.90
2022-11-18T07:18:55.252Z,6.90
2022-11-18T07:21:23.931Z,7.00
2022-11-18T07:23:53.144Z,7.00
2022-11-18T07:26:21.080Z,7.00
2022-11-18T07:28:48.926Z,7.00
2022-11-18T07:31:17.607Z,7.10
2022-11-18T07:33:45.871Z,7.10
2022-11-18T07:36:14.442Z,7.10
2022-11-18T07:38:42.325Z,7.10
2022-11-18T07:41:12.595Z,7.20
2022-11-18T07:43:40.449Z,7.20
2022-11-18T07:46:12.846Z,7.60
2022-11-18T07:48:40.776Z,7.80
2022-11-18T07:51:08.829Z,7.60
2022-11-18T07:53:36.869Z,7.30
2022-11-18T07:56:05.039Z,7.20
2022-11-18T07:58:34.303Z,7.20
2022-11-18T08:01:08.154Z,7.20
2022-11-18T08:03:36.034Z,7.20
2022-11-18T08:06:04.013Z,7.20
2022-11-18T08:08:31.873Z,7.20
2022-11-18T08:11:00.604Z,7.20
2022-11-18T08:13:28.654Z,7.10
2022-11-18T08:15:57.876Z,7.20
2022-11-18T08:18:25.791Z,7.30
2022-11-18T08:20:53.682Z,7.30
2022-11-18T08:23:21.585Z,7.20
2022-11-18T08:25:49.540Z,7.30
2022-11-18T08:28:17.486Z,7.30
2022-11-18T08:30:45.410Z,7.30
2022-11-18T08:33:14.644Z,7.40
2022-11-18T08:35:42.535Z,7.40
2022-11-18T08:38:10.361Z,7.50
2022-11-18T08:40:38.212Z,7.40
2022-11-18T08:43:06.103Z,7.50
2022-11-18T08:45:33.980Z,7.60
2022-11-18T08:48:02.467Z,7.70
2022-11-18T08:50:31.670Z,7.60
2022-11-18T08:52:59.530Z,7.70
2022-11-18T08:55:27.383Z,7.80
2022-11-18T08:57:55.272Z,7.90
2022-11-18T09:00:23.205Z,7.70
2022-11-18T09:02:52.698Z,7.80
2022-11-18T09:05:20.657Z,7.80
2022-11-18T09:07:49.882Z,7.80
2022-11-18T09:10:18.044Z,7.80
2022-11-18T09:12:45.866Z,7.80
2022-11-18T09:15:14.886Z,7.80
2022-11-18T09:17:43.207Z,7.90
2022-11-18T09:20:11.554Z,8.00
2022-11-18T09:22:40.103Z,8.10
2022-11-18T09:25:10.505Z,8.20
2022-11-18T09:27:38.377Z,8.20
2022-11-18T09:30:07.094Z,8.20
2022-11-18T09:32:34.919Z,8.20
2022-11-18T09:35:02.728Z,8.10
2022-11-18T09:37:30.562Z,8.10
2022-11-18T09:39:58.371Z,8.10
2022-11-18T09:42:39.418Z,8.00
2022-11-18T09:45:16.174Z,8.10
2022-11-18T09:47:47.268Z,8.10
2022-11-18T09:53:10.847Z,8.30
2022-11-18T09:55:39.371Z,8.30
2022-11-18T09:58:08.618Z,8.30
2022-11-18T10:00:36.484Z,8.10
2022-11-18T10:03:06.280Z,8.20
2022-11-18T10:05:41.876Z,8.10
2022-11-18T10:08:19.695Z,8.20
2022-11-18T10:10:51.243Z,8.10
2022-11-18T10:13:25.969Z,8.10
2022-11-18T10:15:58.495Z,8.10
2022-11-18T10:18:58.376Z,8.00
2022-11-18T10:21:19.522Z,7.90
2022-11-18T10:23:51.426Z,7.90
2022-11-18T10:26:34.651Z,7.80
2022-11-18T10:29:03.887Z,7.80
2022-11-18T10:31:31.797Z,8.00
2022-11-18T10:34:00.313Z,8.00
2022-11-18T10:36:28.734Z,8.00
2022-11-18T10:39:10.266Z,8.00
2022-11-18T10:41:40.414Z,8.10
2022-11-18T10:44:27.582Z,8.00
2022-11-18T10:46:55.509Z,8.00
2022-11-18T10:49:23.378Z,7.90
2022-11-18T10:52:06.869Z,7.80
2022-11-18T10:54:34.697Z,7.80
2022-11-18T10:57:05.375Z,7.80
2022-11-18T10:59:35.530Z,7.80
2022-11-18T11:02:09.653Z,7.80
2022-11-18T11:04:37.906Z,7.70
2022-11-18T11:07:18.996Z,7.70
2022-11-18T11:09:46.935Z,7.60
2022-11-18T11:12:15.789Z,7.60
2022-11-18T11:14:50.726Z,7.60
2022-11-18T11:17:20.854Z,7.60
2022-11-18T11:19:52.275Z,7.60
2022-11-18T11:22:20.218Z,7.60
2022-11-18T11:24:48.443Z,7.60
2022-11-18T11:30:29.041Z,7.50
2022-11-18T11:33:16.516Z,7.50
2022-11-18T11:36:20.095Z,7.50
2022-11-18T11:38:59.886Z,7.60
2022-11-18T11:41:31.300Z,7.60
2022-11-18T11:44:11.159Z,7.60
2022-11-18T11:46:44.798Z,7.90
2022-11-18T11:49:18.184Z,8.10
2022-11-18T11:51:49.081Z,8.20
2022-11-18T11:54:34.634Z,8.30
2022-11-18T11:57:05.368Z,8.30
2022-11-18T11:59:37.412Z,8.10
2022-11-18T12:02:25.727Z,8.00
2022-11-18T12:04:54.456Z,7.80
2022-11-18T12:07:23.979Z,7.80
2022-11-18T12:10:04.035Z,7.80
2022-11-18T12:12:36.655Z,7.80
2022-11-18T12:15:17.758Z,7.80
2022-11-18T12:17:52.054Z,7.90
2022-11-18T12:20:44.746Z,7.80
2022-11-18T12:23:14.302Z,7.90
2022-11-18T12:26:04.417Z,7.80
2022-11-18T12:28:37.168Z,7.90
2022-11-18T12:31:34.269Z,7.80
2022-11-18T12:34:05.846Z,7.70
2022-11-18T12:36:36.017Z,7.60
2022-11-18T12:39:33.662Z,7.60
2022-11-18T12:42:19.526Z,7.60
2022-11-18T12:44:48.087Z,7.60
2022-11-18T12:47:16.157Z,7.60
2022-11-18T12:50:13.554Z,7.50
2022-11-18T12:52:52.602Z,7.50
2022-11-18T12:55:23.996Z,7.60
2022-11-18T12:57:51.877Z,7.50
2022-11-18T13:00:29.988Z,7.40
2022-11-18T13:02:58.641Z,7.40
2022-11-18T13:05:28.580Z,7.40
2022-11-18T13:08:17.075Z,7.40
2022-11-18T13:10:54.730Z,7.40
2022-11-18T13:13:26.981Z,7.40
2022-11-18T13:16:12.869Z,7.30
2022-11-18T13:18:50.452Z,7.40
2022-11-18T13:21:44.146Z,7.30
2022-11-18T13:24:15.190Z,7.30
2022-11-18T13:26:43.734Z,7.30
2022-11-18T13:29:34.140Z,7.40
2022-11-18T13:32:14.388Z,7.40
2022-11-18T13:34:44.453Z,7.20
2022-11-18T13:37:17.034Z,7.30
2022-11-18T13:39:45.155Z,7.30
2022-11-18T13:42:21.013Z,7.30
2022-11-18T13:44:53.518Z,7.30
2022-11-18T13:47:29.333Z,7.30
2022-11-18T13:50:07.022Z,7.30
2022-11-18T13:52:38.409Z,7.40
2022-11-18T13:55:09.357Z,7.30
2022-11-18T13:57:37.236Z,7.40
2022-11-18T14:00:07.756Z,7.30
2022-11-18T14:02:40.957Z,7.40
2022-11-18T14:05:21.560Z,7.40
2022-11-18T14:08:24.157Z,7.50
2022-11-18T14:10:51.969Z,7.60
2022-11-18T14:13:24.633Z,7.60
2022-11-18T14:15:52.935Z,7.60
2022-11-18T14:18:23.541Z,7.70
2022-11-18T14:20:52.402Z,7.60
2022-11-18T14:23:20.309Z,7.60
2022-11-18T14:25:49.599Z,7.50
2022-11-18T14:28:21.698Z,7.60
2022-11-18T14:31:05.389Z,7.60
2022-11-18T14:33:35.243Z,7.50
2022-11-18T14:36:03.680Z,7.50
2022-11-18T14:39:24.923Z,7.50
2022-11-18T14:41:50.019Z,7.50
2022-11-18T14:44:18.610Z,7.50
2022-11-18T14:46:48.239Z,7.40
2022-11-18T14:49:18.715Z,7.30
2022-11-18T14:51:46.863Z,7.30
2022-11-18T14:54:18.166Z,7.30
2022-11-18T14:56:48.251Z,7.40
2022-11-18T14:59:16.813Z,7.30
2022-11-18T15:01:45.053Z,7.30
2022-11-18T15:04:13.021Z,7.30
2022-11-18T15:06:40.884Z,7.30
2022-11-18T15:09:08.833Z,7.20
2022-11-18T15:11:36.679Z,7.20
2022-11-18T15:14:05.876Z,7.10
2022-11-18T15:16:34.589Z,7.00
2022-11-18T15:19:03.343Z,6.80
2022-11-18T15:21:31.294Z,6.90
2022-11-18T15:23:59.196Z,6.90
2022-11-18T15:26:27.712Z,6.80
2022-11-18T15:28:56.740Z,6.80
2022-11-18T15:31:26.043Z,6.70
2022-11-18T15:33:53.965Z,6.70
2022-11-18T15:36:22.438Z,6.60
2022-11-18T15:38:50.605Z,6.60
2022-11-18T15:41:20.465Z,6.60
2022-11-18T15:43:48.342Z,6.50
2022-11-18T15:46:16.323Z,6.50
2022-11-18T15:48:45.590Z,6.50
2022-11-18T15:51:13.497Z,6.40
2022-11-18T15:53:41.368Z,6.50
2022-11-18T15:56:16.701Z,6.50
2022-11-18T15:58:44.585Z,6.40
2022-11-18T16:01:12.616Z,6.50
2022-11-18T16:03:40.523Z,6.40
2022-11-18T16:06:09.900Z,6.30
2022-11-18T16:08:37.731Z,6.40
2022-11-18T16:11:22.970Z,6.40
2022-11-18T16:13:50.834Z,6.50
2022-11-18T16:16:20.050Z,6.60
2022-11-18T16:22:36.717Z,6.50
2022-11-18T16:25:05.967Z,6.40
2022-11-18T16:27:33.826Z,6.50
2022-11-18T16:30:04.092Z,6.50
2022-11-18T16:32:31.976Z,6.50
2022-11-18T16:35:01.377Z,6.50
2022-11-18T16:37:29.595Z,6.60
2022-11-18T16:39:58.786Z,6.50
2022-11-18T16:42:26.607Z,6.60
2022-11-18T16:44:54.515Z,6.50
2022-11-18T16:47:22.446Z,6.50
2022-11-18T16:49:50.291Z,6.50
2022-11-18T16:52:18.145Z,6.40
2022-11-18T16:54:46.585Z,6.40
2022-11-18T16:57:15.931Z,6.40
2022-11-18T16:59:44.845Z,6.40
2022-11-18T17:02:13.404Z,6.40
2022-11-18T17:04:41.458Z,6.30
2022-11-18T17:07:09.358Z,6.30
2022-11-18T17:09:37.375Z,6.30
2022-11-18T17:12:05.782Z,6.20
2022-11-18T17:14:38.044Z,6.20
2022-11-18T17:17:05.968Z,6.10
2022-11-18T17:19:33.959Z,6.20
2022-11-18T17:22:01.867Z,6.20
2022-11-18T17:24:29.805Z,6.30
2022-11-18T17:26:57.727Z,6.10
2022-11-18T17:29:25.653Z,6.10
2022-11-18T17:31:55.470Z,5.90
2022-11-18T17:34:23.312Z,5.90
2022-11-18T17:36:51.562Z,6.00
2022-11-18T17:39:20.782Z,5.90
2022-11-18T17:42:06.575Z,5.90
2022-11-18T17:44:34.452Z,5.80
2022-11-18T17:47:03.845Z,5.90
2022-11-18T17:49:31.744Z,5.90
2022-11-18T17:51:59.663Z,5.90
2022-11-18T17:54:27.631Z,5.90
2022-11-18T17:56:55.630Z,5.90
2022-11-18T17:59:24.060Z,5.80
2022-11-18T18:01:58.604Z,5.70
2022-11-18T18:04:28.771Z,5.70
2022-11-18T18:06:56.685Z,5.70
2022-11-18T18:09:30.004Z,5.70
2022-11-18T18:11:58.734Z,5.80
2022-11-18T18:14:25.603Z,5.90
2022-11-18T18:16:54.646Z,5.90
2022-11-18T18:19:23.274Z,5.90
2022-11-18T18:21:53.210Z,5.80
2022-11-18T18:24:21.619Z,5.80
2022-11-18T18:26:50.078Z,5.80
2022-11-18T18:29:17.962Z,5.90
2022-11-18T18:31:45.999Z,5.90
2022-11-18T18:34:13.843Z,5.90
2022-11-18T18:36:41.727Z,5.80
2022-11-18T18:39:11.104Z,5.80
2022-11-18T18:41:39.086Z,5.90
2022-11-18T18:44:07.002Z,5.80
2022-11-18T18:46:34.063Z,5.70
2022-11-18T18:49:04.081Z,5.60
2022-11-18T18:51:33.184Z,5.80
2022-11-18T18:54:01.080Z,5.80
2022-11-18T18:56:30.435Z,5.80
2022-11-18T18:58:58.617Z,5.80
2022-11-18T19:01:26.664Z,5.80
2022-11-18T19:03:55.412Z,5.90
2022-11-18T19:09:13.276Z,5.90
2022-11-18T19:12:00.142Z,5.80
2022-11-18T19:14:28.372Z,5.80
2022-11-18T19:16:56.289Z,5.80
2022-11-18T19:19:38.967Z,5.80
2022-11-18T19:22:06.842Z,5.90
2022-11-18T19:27:23.819Z,5.70
2022-11-18T19:29:51.764Z,5.60
2022-11-18T19:32:19.623Z,5.50
2022-11-18T19:34:47.545Z,5.50
2022-11-18T19:37:15.433Z,5.40
2022-11-18T19:39:43.341Z,5.30
2022-11-18T19:42:11.681Z,5.30
2022-11-18T19:44:41.046Z,5.30
2022-11-18T19:47:08.893Z,5.30
2022-11-18T19:49:36.740Z,5.40
2022-11-18T19:52:05.192Z,5.40
2022-11-18T19:54:33.032Z,5.40
2022-11-18T19:57:01.004Z,5.30
2022-11-18T19:59:29.438Z,5.30
2022-11-18T20:01:58.655Z,5.20
2022-11-18T20:04:26.589Z,5.20
2022-11-18T20:06:54.523Z,5.10
2022-11-18T20:09:22.385Z,5.20
2022-11-18T20:11:50.313Z,5.10
2022-11-18T20:14:18.341Z,5.10
2022-11-18T20:16:46.248Z,5.20
2022-11-18T20:19:17.210Z,5.10
2022-11-18T20:21:45.161Z,5.20
2022-11-18T20:24:15.812Z,5.20
2022-11-18T20:26:43.843Z,5.20
2022-11-18T20:29:12.016Z,5.30
2022-11-18T20:31:39.904Z,5.20
2022-11-18T20:34:07.800Z,5.20
2022-11-18T20:36:37.683Z,5.20
2022-11-18T20:39:06.841Z,5.20
2022-11-18T20:41:36.188Z,5.20
2022-11-18T20:44:04.230Z,5.10
2022-11-18T20:46:33.274Z,5.10
2022-11-18T20:49:01.560Z,5.20
2022-11-18T20:51:30.095Z,5.10
2022-11-18T20:54:00.019Z,5.10
2022-11-18T20:56:28.283Z,5.10
2022-11-18T20:58:57.220Z,5.10
2022-11-18T21:01:26.205Z,4.90
2022-11-18T21:03:54.970Z,4.90
2022-11-18T21:06:23.452Z,4.90
2022-11-18T21:08:55.418Z,4.90
2022-11-18T21:11:24.865Z,4.90
2022-11-18T21:14:25.508Z,5.30
2022-11-18T21:16:55.110Z,5.30
2022-11-18T21:19:23.060Z,5.30
2022-11-18T21:21:52.390Z,5.20
2022-11-18T21:24:21.377Z,5.10
2022-11-18T21:26:51.310Z,5.10
2022-11-18T21:29:19.688Z,5.10
2022-11-18T21:31:47.951Z,5.20
2022-11-18T21:34:16.135Z,5.10
2022-11-18T21:36:46.890Z,5.10
2022-11-18T21:39:17.268Z,5.10
2022-11-18T21:41:47.488Z,5.20
2022-11-18T21:44:18.848Z,5.20
2022-11-18T21:46:46.668Z,5.20
2022-11-18T21:49:14.497Z,5.10
2022-11-18T21:51:42.304Z,5.00
2022-11-18T21:54:11.661Z,5.00
2022-11-18T21:56:39.493Z,5.20
2022-11-18T21:59:07.886Z,5.20
2022-11-18T22:01:37.121Z,5.20
2022-11-18T22:04:05.573Z,5.10
2022-11-18T22:06:34.303Z,4.90
2022-11-18T22:09:02.693Z,4.90
2022-11-18T22:11:30.550Z,4.80
2022-11-18T22:13:58.439Z,5.00
2022-11-18T22:16:26.499Z,5.00
2022-11-18T22:19:01.468Z,5.00
2022-11-18T22:21:30.362Z,4.90
2022-11-18T22:23:58.321Z,4.90
2022-11-18T22:26:26.207Z,4.90
2022-11-18T22:28:54.503Z,5.10
2022-11-18T22:31:22.826Z,5.00
2022-11-18T22:33:50.852Z,5.10
2022-11-18T22:36:20.730Z,5.10
2022-11-18T22:38:48.671Z,5.10
2022-11-18T22:41:31.022Z,5.10
2022-11-18T22:44:02.686Z,5.20
2022-11-18T22:46:34.799Z,5.20
2022-11-18T22:49:02.849Z,5.30
2022-11-18T22:51:32.339Z,5.30
2022-11-18T22:56:48.053Z,5.20
2022-11-18T22:59:16.276Z,5.10
2022-11-18T23:01:44.561Z,5.20
2022-11-18T23:04:12.431Z,5.20
2022-11-18T23:06:41.699Z,5.20
2022-11-18T23:09:10.388Z,5.20
2022-11-18T23:11:55.596Z,5.20
2022-11-18T23:14:23.485Z,5.30
2022-11-18T23:16:51.332Z,5.20
2022-11-18T23:19:19.581Z,5.10
2022-11-18T23:21:48.899Z,5.10
2022-11-18T23:24:17.571Z,5.30
2022-11-18T23:26:45.575Z,5.40
2022-11-18T23:29:13.856Z,5.30
2022-11-18T23:31:42.790Z,5.30
2022-11-18T23:34:11.162Z,5.30
2022-11-18T23:36:39.099Z,5.20
2022-11-18T23:39:08.403Z,5.20
2022-11-18T23:41:36.265Z,5.20
2022-11-18T23:44:04.297Z,5.10
2022-11-18T23:46:32.175Z,5.10
2022-11-18T23:49:00.101Z,5.30
2022-11-18T23:51:27.937Z,5.30
2022-11-18T23:53:56.387Z,5.50
2022-11-18T23:56:26.748Z,5.20
2022-11-18T23:58:55.521Z,5.20
